Time;durP1;ratioP1;P1;durP2;ratioP2;P2;SDS_P1;SDS_P2;PMS_P1;PMS_P2;Temp;Humidity;BMP_temperature;BMP_pressure;BME280_temperature;BME280_humidity;BME280_pressure;Samples;Min_cycle;Max_cycle;Signal;HPM_P1;HPM_P2
2022/05/22 00:02:30;;;;;;;6.90;3.80;;;15.90;99.90;;;;;;5099897;28;20736;-84
2022/05/22 00:05:00;;;;;;;4.93;3.42;;;15.90;99.90;;;;;;5093306;28;20191;-84
2022/05/22 00:07:34;;;;;;;7.38;3.33;;;15.80;99.90;;;;;;5085009;28;20257;-86
2022/05/22 00:10:08;;;;;;;4.40;3.03;;;15.80;99.90;;;;;;5088144;28;20234;-84
2022/05/22 00:12:40;;;;;;;5.25;3.30;;;15.90;99.90;;;;;;5088811;28;20226;-86
2022/05/22 00:15:12;;;;;;;7.03;3.50;;;15.90;99.90;;;;;;5117123;27;20213;-85
2022/05/22 00:17:45;;;;;;;7.32;3.90;;;15.90;99.90;;;;;;5095598;28;20650;-86
2022/05/22 00:20:16;;;;;;;4.07;3.08;;;15.90;99.90;;;;;;5115571;27;20664;-84
2022/05/22 00:22:48;;;;;;;5.97;3.13;;;15.90;99.90;;;;;;5113214;27;20235;-82
2022/05/22 00:25:23;;;;;;;5.32;3.00;;;15.90;99.90;;;;;;5116681;27;20209;-83
2022/05/22 00:27:54;;;;;;;7.13;2.90;;;15.90;99.90;;;;;;5120485;27;20197;-82
2022/05/22 00:30:25;;;;;;;4.57;3.08;;;15.90;99.90;;;;;;5112290;27;20218;-83
2022/05/22 00:32:55;;;;;;;4.78;2.55;;;15.90;99.90;;;;;;5120748;27;20216;-82
2022/05/22 00:35:26;;;;;;;4.53;2.40;;;15.90;99.90;;;;;;5114025;27;20230;-82
2022/05/22 00:37:57;;;;;;;6.28;2.67;;;15.90;99.90;;;;;;5117419;27;20297;-88
2022/05/22 00:40:31;;;;;;;7.45;2.70;;;15.90;99.90;;;;;;5113490;27;20718;-89
2022/05/22 00:43:01;;;;;;;7.15;3.10;;;15.90;99.90;;;;;;5116563;28;20191;-87
2022/05/22 00:45:32;;;;;;;4.65;2.70;;;16.00;99.90;;;;;;5127311;27;20194;-90
2022/05/22 00:48:03;;;;;;;5.50;3.13;;;16.00;99.90;;;;;;5114624;28;20260;-90
2022/05/22 00:50:34;;;;;;;3.97;3.10;;;16.00;99.90;;;;;;5113869;28;20272;-90
2022/05/22 00:53:04;;;;;;;5.68;3.40;;;16.10;99.90;;;;;;5112114;28;20194;-90
2022/05/22 00:55:38;;;;;;;4.50;2.83;;;16.10;99.90;;;;;;5117410;28;20237;-90
2022/05/22 00:58:12;;;;;;;4.07;2.63;;;16.10;99.90;;;;;;5116213;28;20193;-90
2022/05/22 01:00:43;;;;;;;3.67;2.80;;;16.20;99.90;;;;;;5129977;27;20256;-89
2022/05/22 01:03:29;;;;;;;3.88;2.40;;;16.20;99.90;;;;;;5101726;27;20654;-89
2022/05/22 01:06:06;;;;;;;4.60;2.70;;;16.20;99.90;;;;;;5098957;27;20260;-90
2022/05/22 01:08:39;;;;;;;3.83;2.15;;;16.20;99.90;;;;;;5116625;28;20194;-89
2022/05/22 01:11:14;;;;;;;5.25;2.67;;;16.20;99.90;;;;;;5122976;27;20213;-89
2022/05/22 01:13:48;;;;;;;4.70;2.38;;;16.20;99.90;;;;;;5140471;27;20300;-90
2022/05/22 01:16:18;;;;;;;3.90;2.20;;;16.20;99.90;;;;;;5124778;27;20599;-90
2022/05/22 01:18:54;;;;;;;4.68;2.10;;;16.30;99.90;;;;;;5116742;28;20194;-89
2022/05/22 01:21:26;;;;;;;4.18;1.92;;;16.30;99.90;;;;;;5109093;28;20187;-89
2022/05/22 01:23:59;;;;;;;3.22;1.80;;;16.30;99.90;;;;;;5120113;27;20653;-90
2022/05/22 01:26:32;;;;;;;3.53;1.55;;;16.30;99.90;;;;;;5137265;27;20640;-87
2022/05/22 01:29:02;;;;;;;3.45;1.58;;;16.30;99.90;;;;;;5121442;27;20207;-89
2022/05/22 01:31:33;;;;;;;3.83;1.80;;;16.30;99.90;;;;;;5095252;28;20187;-90
2022/05/22 01:34:04;;;;;;;4.70;1.65;;;16.30;99.90;;;;;;5095416;28;20192;-90
2022/05/22 01:36:35;;;;;;;4.07;1.73;;;16.40;99.90;;;;;;5117607;27;20260;-90
2022/05/22 01:39:08;;;;;;;5.28;1.63;;;16.50;99.90;;;;;;5125415;28;20179;-90
2022/05/22 01:41:39;;;;;;;3.05;1.40;;;16.40;99.90;;;;;;5124902;27;20239;-89
2022/05/22 01:44:09;;;;;;;4.15;1.50;;;16.50;99.90;;;;;;5160053;27;20170;-83
2022/05/22 01:46:43;;;;;;;3.25;1.73;;;16.50;99.90;;;;;;5140275;27;20202;-80
2022/05/22 01:49:13;;;;;;;3.25;1.33;;;16.60;99.90;;;;;;5123242;28;20219;-90
2022/05/22 01:51:45;;;;;;;2.58;1.45;;;16.60;99.90;;;;;;5115736;28;20194;-89
2022/05/22 01:54:17;;;;;;;2.90;1.50;;;16.70;99.90;;;;;;5131902;27;20186;-90
2022/05/22 01:56:48;;;;;;;4.00;1.50;;;16.70;99.90;;;;;;5137535;27;20637;-90
2022/05/22 01:59:18;;;;;;;2.80;1.50;;;16.70;99.90;;;;;;5113661;28;20250;-90
2022/05/22 02:01:49;;;;;;;2.88;1.30;;;16.80;99.90;;;;;;5101150;28;20251;-91
2022/05/22 02:04:20;;;;;;;4.35;1.83;;;16.80;99.90;;;;;;5114202;28;20394;-90
2022/05/22 02:09:40;;;;;;;3.28;1.50;;;16.90;99.90;;;;;;5097795;28;20217;-90
2022/05/22 02:12:11;;;;;;;4.07;1.90;;;16.90;99.90;;;;;;5098077;27;20206;-90
2022/05/22 02:14:43;;;;;;;4.25;1.60;;;17.00;99.90;;;;;;5116077;28;20251;-90
2022/05/22 02:17:13;;;;;;;3.20;1.50;;;17.00;99.90;;;;;;5125525;27;20186;-91
2022/05/22 02:19:44;;;;;;;5.38;1.65;;;17.10;99.90;;;;;;5119441;27;20256;-91
2022/05/22 02:22:15;;;;;;;3.35;1.50;;;17.10;99.90;;;;;;5113488;28;20203;-90
2022/05/22 02:24:53;;;;;;;4.45;1.77;;;17.10;99.90;;;;;;5129106;27;20202;-91
2022/05/22 02:27:24;;;;;;;2.35;1.40;;;17.10;99.90;;;;;;5136946;27;20636;-89
2022/05/22 02:29:55;;;;;;;4.22;1.40;;;17.20;99.90;;;;;;5131586;27;20210;-91
2022/05/22 02:32:26;;;;;;;3.33;1.58;;;17.30;99.90;;;;;;5111696;27;20190;-91
2022/05/22 02:34:57;;;;;;;4.88;2.10;;;17.30;99.90;;;;;;5125003;27;20287;-90
2022/05/22 02:37:27;;;;;;;4.05;2.40;;;17.30;99.90;;;;;;5115720;28;20191;-90
2022/05/22 02:40:00;;;;;;;6.40;2.08;;;17.30;99.90;;;;;;5127254;27;20254;-91
2022/05/22 02:42:35;;;;;;;3.22;1.55;;;17.30;99.90;;;;;;5136370;27;20201;-90
2022/05/22 02:45:06;;;;;;;2.83;1.40;;;17.30;99.90;;;;;;5131918;27;20592;-90
2022/05/22 02:47:37;;;;;;;3.08;1.38;;;17.30;99.90;;;;;;5114917;28;20224;-90
2022/05/22 02:50:09;;;;;;;2.58;1.30;;;17.40;99.90;;;;;;5113595;28;20219;-89
2022/05/22 02:52:40;;;;;;;4.43;1.48;;;17.40;99.90;;;;;;5115713;27;20195;-89
2022/05/22 02:55:14;;;;;;;3.20;1.50;;;17.40;99.90;;;;;;5118895;27;20205;-90
2022/05/22 02:57:44;;;;;;;2.65;1.40;;;17.40;99.90;;;;;;5135628;27;20193;-89
2022/05/22 03:00:19;;;;;;;3.03;1.30;;;17.40;99.90;;;;;;5124033;27;20282;-89
2022/05/22 03:02:49;;;;;;;3.45;1.38;;;17.50;99.90;;;;;;5117568;27;20197;-90
2022/05/22 03:05:20;;;;;;;2.28;1.10;;;17.40;99.90;;;;;;5112015;28;20198;-90
2022/05/22 03:07:51;;;;;;;3.75;1.10;;;17.40;99.90;;;;;;5113745;28;20248;-89
2022/05/22 03:10:24;;;;;;;2.22;0.93;;;17.40;99.90;;;;;;5109570;28;20339;-89
2022/05/22 03:12:55;;;;;;;1.33;0.80;;;17.30;99.90;;;;;;5095177;28;20187;-90
2022/05/22 03:15:26;;;;;;;1.75;1.00;;;17.30;99.90;;;;;;5112520;28;20201;-89
2022/05/22 03:17:56;;;;;;;2.53;1.10;;;17.40;99.90;;;;;;5114965;28;20187;-90
2022/05/22 03:20:30;;;;;;;3.90;1.20;;;17.40;99.90;;;;;;5116019;27;20235;-89
2022/05/22 03:23:01;;;;;;;2.53;0.70;;;17.40;99.90;;;;;;5119212;27;20515;-90
2022/05/22 03:25:35;;;;;;;1.63;0.90;;;17.40;99.90;;;;;;5104517;28;20688;-90
2022/05/22 03:28:06;;;;;;;2.63;1.17;;;17.50;99.90;;;;;;5115233;28;20225;-89
2022/05/22 03:30:39;;;;;;;1.70;0.85;;;17.50;99.90;;;;;;5126434;27;20579;-90
2022/05/22 03:33:10;;;;;;;2.22;0.68;;;17.70;99.90;;;;;;5136114;27;20197;-90
2022/05/22 03:35:41;;;;;;;1.48;0.57;;;17.60;99.90;;;;;;5122791;27;20278;-90
2022/05/22 03:38:12;;;;;;;1.85;0.70;;;17.70;99.90;;;;;;5131431;27;20186;-90
2022/05/22 03:40:48;;;;;;;1.58;0.70;;;17.80;99.90;;;;;;5115489;28;20273;-90
2022/05/22 03:43:20;;;;;;;1.08;0.50;;;17.80;99.90;;;;;;5114925;28;20615;-87
2022/05/22 03:45:50;;;;;;;2.03;0.40;;;17.90;99.90;;;;;;5131400;27;20190;-88
2022/05/22 03:48:21;;;;;;;1.35;0.45;;;17.90;99.90;;;;;;5113737;28;20235;-87
2022/05/22 03:50:53;;;;;;;2.80;0.50;;;18.00;99.90;;;;;;5113375;27;20284;-88
2022/05/22 03:53:24;;;;;;;1.35;0.50;;;18.00;99.90;;;;;;5119305;27;20182;-86
2022/05/22 03:55:57;;;;;;;1.85;0.50;;;18.10;99.90;;;;;;5123752;27;20190;-87
2022/05/22 03:58:27;;;;;;;1.95;0.60;;;18.30;99.90;;;;;;5114207;28;20186;-88
2022/05/22 04:00:59;;;;;;;2.15;0.77;;;18.40;99.90;;;;;;5131211;28;20275;-88
2022/05/22 04:03:29;;;;;;;1.80;0.68;;;18.50;99.90;;;;;;5107166;27;20190;-89
2022/05/22 04:06:01;;;;;;;1.60;0.60;;;18.60;99.90;;;;;;5113807;28;20207;-88
2022/05/22 04:08:31;;;;;;;1.70;0.57;;;18.70;99.90;;;;;;5122537;28;20297;-88
2022/05/22 04:11:09;;;;;;;2.50;0.65;;;18.70;99.90;;;;;;5126909;28;20277;-88
2022/05/22 04:13:40;;;;;;;1.02;0.50;;;18.70;99.90;;;;;;5117741;28;20234;-89
2022/05/22 04:16:10;;;;;;;1.48;0.50;;;18.70;99.90;;;;;;5134742;27;20197;-89
2022/05/22 04:18:41;;;;;;;1.48;0.40;;;18.70;99.90;;;;;;5093561;28;20191;-88
2022/05/22 04:21:13;;;;;;;1.83;0.60;;;18.80;99.90;;;;;;5101763;28;20191;-88
2022/05/22 04:26:36;;;;;;;1.08;0.52;;;18.90;99.90;;;;;;5122512;28;20558;-92
2022/05/22 04:29:07;;;;;;;4.10;0.68;;;18.90;99.90;;;;;;5122081;28;20214;-89
2022/05/22 04:31:38;;;;;;;2.40;0.60;;;18.90;99.90;;;;;;5114150;28;20210;-89
2022/05/22 04:34:08;;;;;;;2.05;0.90;;;18.90;99.90;;;;;;5120591;28;20187;-88
2022/05/22 04:36:39;;;;;;;1.83;0.40;;;18.90;99.90;;;;;;5070019;28;20200;-88
2022/05/22 04:39:11;;;;;;;1.48;0.55;;;18.90;99.90;;;;;;5083756;28;20181;-90
2022/05/22 04:41:44;;;;;;;0.88;0.55;;;18.90;99.90;;;;;;5081787;28;20594;-89
2022/05/22 04:44:15;;;;;;;0.80;0.70;;;18.90;99.90;;;;;;5072672;28;20188;-88
2022/05/22 04:46:45;;;;;;;1.83;0.65;;;18.90;99.90;;;;;;5082474;28;20191;-90
2022/05/22 04:49:16;;;;;;;1.65;0.73;;;18.80;99.90;;;;;;5086389;28;20670;-89
2022/05/22 04:51:47;;;;;;;1.05;0.80;;;18.90;99.90;;;;;;5080837;28;20247;-89
2022/05/22 04:54:18;;;;;;;1.55;0.75;;;18.90;99.90;;;;;;5072487;28;20246;-89
2022/05/22 04:56:50;;;;;;;3.30;0.98;;;18.80;99.90;;;;;;5078808;28;20188;-89
2022/05/22 04:59:21;;;;;;;1.92;0.70;;;18.80;99.90;;;;;;5067665;28;20192;-89
2022/05/22 05:01:51;;;;;;;2.17;0.63;;;18.80;99.90;;;;;;5067990;28;20212;-91
2022/05/22 05:04:22;;;;;;;1.40;0.70;;;18.80;99.90;;;;;;5086018;28;20608;-89
2022/05/22 05:06:53;;;;;;;4.15;0.60;;;18.80;99.90;;;;;;5074615;28;20241;-90
2022/05/22 05:09:24;;;;;;;1.88;0.90;;;18.80;99.90;;;;;;5076660;28;20271;-91
2022/05/22 05:11:56;;;;;;;1.98;0.80;;;18.90;99.90;;;;;;5091590;28;20203;-91
2022/05/22 05:14:27;;;;;;;1.30;0.60;;;18.90;99.90;;;;;;5096384;28;20207;-91
2022/05/22 05:16:57;;;;;;;1.40;0.68;;;18.80;99.90;;;;;;5079984;28;20192;-89
2022/05/22 05:19:29;;;;;;;1.83;0.80;;;18.80;99.90;;;;;;5077554;28;20238;-90
2022/05/22 05:22:00;;;;;;;1.90;0.57;;;18.80;99.90;;;;;;5092113;28;20199;-91
2022/05/22 05:24:31;;;;;;;2.05;0.60;;;18.80;99.90;;;;;;5095612;28;20206;-90
2022/05/22 05:27:03;;;;;;;1.58;0.73;;;18.80;99.90;;;;;;5096308;28;20190;-91
2022/05/22 05:29:34;;;;;;;4.28;1.02;;;18.80;99.90;;;;;;5097380;28;20172;-89
2022/05/22 05:32:05;;;;;;;1.88;0.75;;;18.80;99.90;;;;;;5110069;28;20246;-88
2022/05/22 05:34:35;;;;;;;1.48;0.80;;;18.80;99.90;;;;;;5122129;27;20240;-87
2022/05/22 05:37:09;;;;;;;2.03;0.80;;;18.80;99.90;;;;;;5127744;27;20228;-90
2022/05/22 05:39:40;;;;;;;1.98;0.73;;;18.70;99.90;;;;;;5137295;27;20599;-90
2022/05/22 05:42:13;;;;;;;0.93;0.50;;;18.60;99.90;;;;;;5140705;27;20641;-91
2022/05/22 05:44:45;;;;;;;2.38;0.90;;;18.60;99.90;;;;;;5131512;27;20190;-92
2022/05/22 05:47:15;;;;;;;1.75;0.57;;;18.60;99.90;;;;;;5125449;27;20654;-92
2022/05/22 05:49:46;;;;;;;1.60;0.80;;;18.60;99.90;;;;;;5121146;27;20196;-90
2022/05/22 05:52:17;;;;;;;2.00;0.70;;;18.50;99.90;;;;;;5104368;27;20239;-91
2022/05/22 05:54:48;;;;;;;1.33;0.70;;;18.50;99.90;;;;;;5135969;27;20284;-91
2022/05/22 05:57:21;;;;;;;0.77;0.60;;;18.40;99.90;;;;;;5136466;27;20198;-91
2022/05/22 05:59:55;;;;;;;1.70;0.70;;;18.30;99.90;;;;;;5122580;27;20251;-90
2022/05/22 06:02:26;;;;;;;3.33;0.80;;;18.30;99.90;;;;;;5114436;28;20266;-90
2022/05/22 06:04:57;;;;;;;1.00;0.60;;;18.30;99.90;;;;;;5110526;27;20192;-89
2022/05/22 06:07:27;;;;;;;2.28;0.80;;;18.30;99.90;;;;;;5102038;28;20218;-90
2022/05/22 06:09:58;;;;;;;2.78;0.80;;;18.20;99.90;;;;;;5132491;27;20186;-90
2022/05/22 06:12:31;;;;;;;2.78;1.08;;;18.20;99.90;;;;;;5135977;27;20221;-91
2022/05/22 06:15:02;;;;;;;2.20;0.98;;;18.20;99.90;;;;;;5122521;27;20195;-90
2022/05/22 06:17:36;;;;;;;1.98;0.85;;;18.20;99.90;;;;;;5129895;27;20213;-88
2022/05/22 06:20:09;;;;;;;1.40;0.93;;;18.20;99.90;;;;;;5114060;28;20191;-91
2022/05/22 06:22:40;;;;;;;1.48;0.68;;;18.10;99.90;;;;;;5136182;27;20251;-90
2022/05/22 06:25:12;;;;;;;1.60;1.00;;;18.10;99.90;;;;;;5120349;27;20194;-91
2022/05/22 06:27:45;;;;;;;2.28;0.90;;;18.10;99.90;;;;;;5126909;27;20243;-89
2022/05/22 06:30:18;;;;;;;1.83;1.00;;;18.10;99.90;;;;;;5127122;27;20186;-81
2022/05/22 06:32:49;;;;;;;2.75;0.70;;;18.10;99.90;;;;;;5113100;27;20277;-83
2022/05/22 06:45:40;;;;;;;3.25;1.13;;;18.00;99.90;;;;;;5097077;28;20233;-83
2022/05/22 06:48:11;;;;;;;1.60;1.42;;;18.00;99.90;;;;;;5109077;27;20248;-87
2022/05/22 06:50:44;;;;;;;3.45;2.10;;;18.00;99.90;;;;;;5105801;28;20243;-82
2022/05/22 06:53:15;;;;;;;3.25;1.70;;;17.90;99.90;;;;;;5112320;27;20185;-88
2022/05/22 06:55:45;;;;;;;2.95;1.20;;;17.90;99.90;;;;;;5115742;27;20235;-85
2022/05/22 06:58:16;;;;;;;2.08;1.10;;;17.90;99.90;;;;;;5115972;27;20202;-86
2022/05/22 07:00:54;;;;;;;1.95;0.98;;;17.90;99.90;;;;;;5120716;27;20198;-85
2022/05/22 07:03:24;;;;;;;2.25;0.85;;;17.90;99.90;;;;;;5102843;27;20198;-83
2022/05/22 07:05:56;;;;;;;1.45;0.70;;;17.90;99.90;;;;;;5106980;28;20190;-84
2022/05/22 07:08:27;;;;;;;1.85;0.90;;;17.90;99.90;;;;;;5121048;27;20203;-84
2022/05/22 07:13:47;;;;;;;4.03;2.00;;;17.80;99.90;;;;;;5116971;27;20675;-83
2022/05/22 07:16:19;;;;;;;3.35;1.60;;;17.80;99.90;;;;;;5114128;27;20187;-87
2022/05/22 07:18:50;;;;;;;2.13;1.80;;;17.80;99.90;;;;;;5110567;28;20617;-84
2022/05/22 07:21:24;;;;;;;5.22;1.40;;;17.80;99.90;;;;;;5118279;27;20182;-84
2022/05/22 07:23:55;;;;;;;1.88;0.65;;;17.80;99.90;;;;;;5119979;27;20190;-84
2022/05/22 07:26:26;;;;;;;3.42;0.82;;;17.80;99.90;;;;;;5109668;27;20195;-84
2022/05/22 07:28:58;;;;;;;5.38;1.92;;;17.80;99.90;;;;;;5100107;27;20222;-83
2022/05/22 07:31:34;;;;;;;4.93;1.77;;;17.80;99.90;;;;;;5102163;27;20226;-88
2022/05/22 07:34:04;;;;;;;5.68;2.00;;;17.80;99.90;;;;;;5105108;28;20233;-86
2022/05/22 07:36:35;;;;;;;7.38;1.80;;;17.70;99.90;;;;;;5109177;27;20199;-83
2022/05/22 07:39:07;;;;;;;3.58;1.10;;;17.70;99.90;;;;;;5102173;27;20603;-83
2022/05/22 07:41:38;;;;;;;5.30;1.00;;;17.60;99.90;;;;;;5106606;27;20252;-83
2022/05/22 07:44:09;;;;;;;6.07;1.77;;;17.60;99.90;;;;;;5104785;27;20199;-82
2022/05/22 07:46:43;;;;;;;5.78;1.67;;;17.60;99.90;;;;;;5103066;28;20230;-83
2022/05/22 07:50:16;;;;;;;4.45;0.98;;;17.50;99.90;;;;;;5105127;27;20202;-82
2022/05/22 07:52:09;;;;;;;4.43;1.10;;;17.50;99.90;;;;;;5102499;28;20214;-78
2022/05/22 07:54:42;;;;;;;4.25;1.17;;;17.50;99.90;;;;;;5101056;28;20222;-80
2022/05/22 07:57:12;;;;;;;3.22;0.90;;;17.40;99.90;;;;;;5101794;28;20195;-79
2022/05/22 07:59:43;;;;;;;4.20;1.40;;;17.40;99.90;;;;;;5103837;28;20211;-78
2022/05/22 08:02:16;;;;;;;4.40;1.30;;;17.40;99.90;;;;;;5102772;28;20198;-79
2022/05/22 08:04:50;;;;;;;5.30;1.08;;;17.40;99.90;;;;;;5104905;28;20202;-80
2022/05/22 08:07:21;;;;;;;1.98;1.35;;;17.40;99.90;;;;;;5105640;28;20222;-78
2022/05/22 08:09:52;;;;;;;3.80;1.65;;;17.40;99.90;;;;;;5103012;28;20244;-78
2022/05/22 08:12:23;;;;;;;2.72;1.00;;;17.40;99.90;;;;;;5100655;28;20233;-79
2022/05/22 08:14:54;;;;;;;3.83;1.20;;;17.40;99.90;;;;;;5103064;28;20673;-79
2022/05/22 08:17:26;;;;;;;3.08;1.10;;;17.30;99.90;;;;;;5101524;28;20194;-78
2022/05/22 08:19:57;;;;;;;6.10;1.10;;;17.30;99.90;;;;;;5102114;28;20746;-79
2022/05/22 08:22:30;;;;;;;5.05;1.77;;;17.30;99.90;;;;;;5103002;28;20198;-80
2022/05/22 08:25:00;;;;;;;4.57;1.70;;;17.30;99.90;;;;;;5099407;28;20222;-80
2022/05/22 08:27:31;;;;;;;2.15;1.25;;;17.30;99.90;;;;;;5100615;28;20735;-79
2022/05/22 08:30:02;;;;;;;2.28;1.20;;;17.20;99.90;;;;;;5101180;28;20193;-79
2022/05/22 08:32:37;;;;;;;3.28;1.17;;;17.20;99.90;;;;;;5107947;28;20217;-80
2022/05/22 08:35:09;;;;;;;4.95;1.42;;;17.20;99.90;;;;;;5105595;28;20194;-78
2022/05/22 08:37:39;;;;;;;6.38;2.80;;;17.10;99.90;;;;;;5103432;28;20214;-82
2022/05/22 08:40:12;;;;;;;6.75;1.98;;;17.10;99.90;;;;;;5103904;27;20243;-78
2022/05/22 08:42:45;;;;;;;4.55;1.60;;;17.10;99.90;;;;;;5105095;27;20206;-78
2022/05/22 08:45:20;;;;;;;3.13;1.50;;;17.00;99.90;;;;;;5104250;28;20346;-78
2022/05/22 08:48:02;;;;;;;12.75;7.35;;;17.00;99.90;;;;;;5106427;27;20259;-77
2022/05/22 08:50:33;;;;;;;7.75;4.60;;;17.00;99.90;;;;;;5104053;27;20202;-79
2022/05/22 08:53:07;;;;;;;10.15;3.72;;;17.00;99.90;;;;;;5102433;27;20801;-79
2022/05/22 09:01:29;;;;;;;7.10;3.28;;;16.90;99.90;;;;;;5103065;27;20205;-78
2022/05/22 09:04:11;;;;;;;4.60;1.83;;;16.80;99.90;;;;;;5101576;28;20242;-78
2022/05/22 09:06:45;;;;;;;5.30;1.40;;;16.80;99.90;;;;;;5102335;28;20187;-79
2022/05/22 09:09:16;;;;;;;5.72;1.88;;;16.80;99.90;;;;;;5098584;27;20201;-81
2022/05/22 09:12:05;;;;;;;4.43;2.10;;;16.70;99.90;;;;;;5103675;27;20840;-79
2022/05/22 09:14:42;;;;;;;3.80;1.75;;;16.70;99.90;;;;;;5105278;27;20199;-80
2022/05/22 09:17:19;;;;;;;4.47;1.25;;;16.80;99.90;;;;;;5101447;28;20263;-81
2022/05/22 09:20:00;;;;;;;2.97;1.25;;;16.70;99.90;;;;;;5106839;27;20273;-80
2022/05/22 09:22:40;;;;;;;3.45;1.40;;;16.70;99.90;;;;;;5105558;27;20194;-78
2022/05/22 09:25:20;;;;;;;5.47;2.40;;;16.70;99.90;;;;;;5102876;27;20194;-80
2022/05/22 09:28:01;;;;;;;2.58;1.70;;;16.70;99.90;;;;;;5101887;28;20612;-79
2022/05/22 09:30:36;;;;;;;3.88;1.45;;;16.70;99.90;;;;;;5103738;27;20656;-80
2022/05/22 09:33:20;;;;;;;5.47;1.80;;;16.70;99.90;;;;;;5103509;27;20221;-80
2022/05/22 09:36:04;;;;;;;2.47;1.20;;;16.70;99.90;;;;;;5104851;27;20222;-80
2022/05/22 09:38:50;;;;;;;2.28;1.00;;;16.70;99.90;;;;;;5104785;27;20254;-79
2022/05/22 09:41:33;;;;;;;3.67;1.30;;;16.80;99.90;;;;;;5105890;27;20198;-78
2022/05/22 09:44:40;;;;;;;3.08;1.33;;;16.70;99.90;;;;;;5105510;27;20186;-77
2022/05/22 09:51:04;;;;;;;3.45;1.23;;;16.70;99.90;;;;;;5099456;28;20711;-79
2022/05/22 09:53:51;;;;;;;2.40;1.17;;;16.70;99.90;;;;;;5103900;27;20220;-78
2022/05/22 09:56:33;;;;;;;2.20;0.93;;;16.70;99.90;;;;;;5101330;27;25324;-78
2022/05/22 09:59:21;;;;;;;3.60;1.23;;;16.70;99.90;;;;;;5102350;27;20236;-78
2022/05/22 10:01:56;;;;;;;2.75;1.13;;;16.70;99.90;;;;;;5102986;27;20191;-79
2022/05/22 10:04:49;;;;;;;2.33;1.20;;;16.70;99.90;;;;;;5100392;27;20749;-81
2022/05/22 10:07:38;;;;;;;3.33;1.50;;;16.70;99.90;;;;;;5100848;28;20650;-77
2022/05/22 10:10:16;;;;;;;4.72;1.63;;;16.70;99.90;;;;;;5101866;28;20199;-78
2022/05/22 10:12:55;;;;;;;5.22;1.70;;;16.70;99.90;;;;;;5103357;27;20225;-77
2022/05/22 10:15:43;;;;;;;3.35;1.42;;;16.60;99.90;;;;;;5101700;27;20199;-77
2022/05/22 10:18:31;;;;;;;4.18;1.33;;;16.60;99.90;;;;;;5098781;27;20859;-79
2022/05/22 10:21:13;;;;;;;2.95;1.35;;;16.60;99.90;;;;;;5106632;27;20234;-78
2022/05/22 10:24:07;;;;;;;3.47;1.17;;;16.60;99.90;;;;;;5100538;27;20259;-78
2022/05/22 10:26:56;;;;;;;1.85;0.90;;;16.60;99.90;;;;;;5102247;28;20684;-79
2022/05/22 10:29:38;;;;;;;3.65;1.40;;;16.50;99.90;;;;;;5105146;28;20190;-79
2022/05/22 10:32:14;;;;;;;2.38;1.33;;;16.40;99.90;;;;;;5108489;27;20257;-78
2022/05/22 10:34:54;;;;;;;3.03;1.45;;;16.40;99.90;;;;;;5105595;27;20600;-77
2022/05/22 10:37:29;;;;;;;3.60;1.30;;;16.40;99.90;;;;;;5101560;28;20245;-79
2022/05/22 10:40:08;;;;;;;2.28;0.98;;;16.40;99.90;;;;;;5100709;28;20194;-79
2022/05/22 10:42:45;;;;;;;1.77;1.00;;;16.30;99.90;;;;;;5102418;27;20222;-79
2022/05/22 10:45:26;;;;;;;4.50;1.08;;;16.30;99.90;;;;;;5101937;27;20245;-79
2022/05/22 10:48:13;;;;;;;1.90;0.82;;;16.30;99.90;;;;;;5102940;28;20190;-82
2022/05/22 10:50:55;;;;;;;1.98;1.05;;;16.20;99.90;;;;;;5102541;27;20214;-78
2022/05/22 10:53:30;;;;;;;5.35;3.60;;;16.20;99.90;;;;;;5102579;27;20705;-80
2022/05/22 10:56:07;;;;;;;3.25;2.92;;;16.10;99.90;;;;;;5100281;27;20197;-83
2022/05/22 10:58:43;;;;;;;5.82;4.63;;;16.10;99.90;;;;;;5103842;27;20248;-83
2022/05/22 11:01:23;;;;;;;9.05;5.13;;;16.10;99.90;;;;;;5112308;28;20251;-90
2022/05/22 11:04:07;;;;;;;6.10;4.07;;;16.10;99.90;;;;;;5108144;28;20571;-87
2022/05/22 11:06:40;;;;;;;3.30;1.80;;;16.10;99.90;;;;;;5109612;28;20717;-86
2022/05/22 11:09:11;;;;;;;3.95;1.48;;;16.00;99.90;;;;;;5108800;28;20194;-83
2022/05/22 11:11:44;;;;;;;1.60;1.00;;;16.00;99.90;;;;;;5108818;28;20194;-84
2022/05/22 11:14:22;;;;;;;2.17;1.08;;;15.90;99.90;;;;;;5110031;27;20199;-87
2022/05/22 11:16:53;;;;;;;3.42;1.33;;;15.90;99.90;;;;;;5107599;28;20205;-86
2022/05/22 11:19:26;;;;;;;2.70;0.88;;;15.90;99.90;;;;;;5109467;28;20198;-84
2022/05/22 11:22:13;;;;;;;2.33;0.93;;;15.90;99.90;;;;;;5108770;28;20194;-86
2022/05/22 11:24:52;;;;;;;1.80;0.93;;;15.90;99.90;;;;;;5108944;28;20183;-88
2022/05/22 11:27:41;;;;;;;1.10;0.90;;;15.80;99.90;;;;;;5108967;28;20198;-86
2022/05/22 11:30:19;;;;;;;2.45;1.10;;;15.70;99.90;;;;;;5108896;27;20248;-87
2022/05/22 11:33:03;;;;;;;1.50;0.85;;;15.70;99.90;;;;;;5111149;28;20266;-87
2022/05/22 11:35:45;;;;;;;2.22;0.98;;;15.70;99.90;;;;;;5107829;28;21823;-85
2022/05/22 11:39:00;;;;;;;1.92;1.05;;;15.70;99.90;;;;;;5108482;28;20235;-86
2022/05/22 11:41:37;;;;;;;1.50;1.10;;;15.70;99.90;;;;;;5023267;28;20220;-85
2022/05/22 11:44:27;;;;;;;2.13;1.10;;;15.70;99.90;;;;;;5104992;28;20630;-86
2022/05/22 11:47:13;;;;;;;2.63;1.30;;;15.70;99.90;;;;;;5108649;27;20190;-87
2022/05/22 11:49:52;;;;;;;1.75;0.98;;;15.70;99.90;;;;;;5105961;28;20271;-87
2022/05/22 11:52:58;;;;;;;2.40;0.90;;;15.70;99.90;;;;;;5107258;28;20211;-88
2022/05/22 11:55:38;;;;;;;2.00;1.00;;;15.70;99.90;;;;;;5104638;28;20209;-85
2022/05/22 11:58:21;;;;;;;1.77;0.75;;;15.70;99.90;;;;;;5103071;28;20199;-81
2022/05/22 12:01:03;;;;;;;4.63;0.80;;;15.70;99.90;;;;;;5101704;28;20186;-84
2022/05/22 12:03:53;;;;;;;1.25;0.60;;;15.70;99.90;;;;;;5104211;28;20194;-84
2022/05/22 12:06:44;;;;;;;1.20;0.70;;;15.70;99.90;;;;;;5102084;28;20219;-86
2022/05/22 12:09:30;;;;;;;2.30;0.90;;;15.60;99.90;;;;;;5105833;28;20255;-83
2022/05/22 12:12:10;;;;;;;1.58;0.82;;;15.60;99.90;;;;;;5104454;27;20265;-81
2022/05/22 12:14:54;;;;;;;1.45;0.75;;;15.60;99.90;;;;;;5107451;27;20277;-83
2022/05/22 12:17:36;;;;;;;2.15;0.65;;;15.60;99.90;;;;;;5106445;27;20219;-83
2022/05/22 12:20:14;;;;;;;1.55;0.75;;;15.60;99.90;;;;;;5106214;27;20190;-81
2022/05/22 12:25:42;;;;;;;1.63;0.70;;;15.50;99.90;;;;;;5107271;27;20194;-82
2022/05/22 12:28:34;;;;;;;1.95;0.82;;;15.50;99.90;;;;;;5105872;28;20186;-83
2022/05/22 12:31:07;;;;;;;2.83;0.60;;;15.40;99.90;;;;;;5105354;27;20198;-82
2022/05/22 12:33:40;;;;;;;3.47;0.90;;;15.40;99.90;;;;;;5107431;27;20314;-82
2022/05/22 12:36:13;;;;;;;1.63;0.80;;;15.40;99.90;;;;;;5105120;28;20214;-85
2022/05/22 12:38:51;;;;;;;1.52;0.63;;;15.40;99.90;;;;;;5104486;27;20198;-84
2022/05/22 12:41:53;;;;;;;2.60;0.77;;;15.40;99.90;;;;;;5104412;28;20235;-84
2022/05/22 12:44:25;;;;;;;2.28;0.70;;;15.40;99.90;;;;;;5110494;27;20198;-83
2022/05/22 12:46:56;;;;;;;1.98;0.90;;;15.40;99.90;;;;;;5126119;27;20190;-84
2022/05/22 12:49:33;;;;;;;2.10;1.27;;;15.40;99.90;;;;;;5102317;27;20280;-82
2022/05/22 12:52:07;;;;;;;3.30;1.50;;;15.40;99.90;;;;;;5103797;27;20258;-83
2022/05/22 12:54:39;;;;;;;1.50;0.80;;;15.40;99.90;;;;;;5104838;27;20228;-82
2022/05/22 12:57:20;;;;;;;1.85;1.08;;;15.30;99.90;;;;;;5106450;27;20198;-82
2022/05/22 12:59:59;;;;;;;1.85;0.70;;;15.40;99.90;;;;;;5106084;27;20198;-84
2022/05/22 13:02:41;;;;;;;2.05;1.00;;;15.30;99.90;;;;;;5105353;28;20927;-83
2022/05/22 13:05:27;;;;;;;1.27;1.00;;;15.40;99.90;;;;;;5104323;27;20209;-83
2022/05/22 13:07:57;;;;;;;2.15;1.00;;;15.30;99.90;;;;;;5105170;27;20195;-82
2022/05/22 13:10:36;;;;;;;2.45;1.08;;;15.40;99.90;;;;;;5104959;27;20252;-81
2022/05/22 13:13:10;;;;;;;1.95;0.93;;;15.30;99.90;;;;;;5104320;27;20704;-81
2022/05/22 13:15:57;;;;;;;2.40;0.90;;;15.30;99.90;;;;;;5105033;28;20183;-83
2022/05/22 13:18:28;;;;;;;2.47;0.90;;;15.30;99.90;;;;;;5104448;28;20672;-81
2022/05/22 13:21:02;;;;;;;2.70;0.98;;;15.30;99.90;;;;;;5103290;27;20222;-82
2022/05/22 13:23:37;;;;;;;3.83;1.20;;;15.30;99.90;;;;;;5104292;28;20238;-83
2022/05/22 13:26:26;;;;;;;2.35;0.75;;;15.30;99.90;;;;;;5103214;28;21126;-83
2022/05/22 13:29:02;;;;;;;1.23;0.75;;;15.30;99.90;;;;;;5104655;27;20197;-83
2022/05/22 13:31:44;;;;;;;3.15;1.00;;;15.30;99.90;;;;;;5104487;27;20229;-82
2022/05/22 13:34:28;;;;;;;1.67;0.95;;;15.20;99.90;;;;;;5102797;27;20332;-82
2022/05/22 13:37:02;;;;;;;2.63;1.30;;;15.30;99.90;;;;;;5102649;28;20207;-81
2022/05/22 13:39:50;;;;;;;4.07;1.20;;;15.30;99.90;;;;;;5103666;27;20198;-83
2022/05/22 13:42:53;;;;;;;1.92;0.90;;;15.30;99.90;;;;;;5102990;27;20241;-82
2022/05/22 13:46:12;;;;;;;2.05;1.00;;;15.20;99.90;;;;;;5105168;27;20199;-81
2022/05/22 13:49:10;;;;;;;2.15;0.90;;;15.30;99.90;;;;;;5107500;27;20647;-82
2022/05/22 13:55:26;;;;;;;1.63;1.15;;;15.30;99.90;;;;;;5096386;27;20354;-83
2022/05/22 13:58:00;;;;;;;2.00;0.77;;;15.40;99.90;;;;;;5101811;28;20206;-85
2022/05/22 14:00:34;;;;;;;1.85;0.98;;;15.30;99.90;;;;;;5103626;28;20207;-83
2022/05/22 14:03:07;;;;;;;1.40;0.90;;;15.40;99.90;;;;;;5105178;27;20201;-83
2022/05/22 14:05:41;;;;;;;2.10;0.98;;;15.40;99.90;;;;;;5107292;27;20202;-81